VAS weather

Sivas Nuri Demira─č Airport
Sivas, Sivas Province, Turkey

Public forecast

Using degrees Celsius for public forecast. Weather courtesy of forecast.io.

METAR (pilot weather report)

Retrieved 2019/06/19 09:50 UTC (46 minutes ago):

LTAR 190950Z VRB03KT 9999 BKN035 19/12 Q1016 RMK RWY19 29004KT 230V320

TAF (pilot weather forecast)

Closest forecast is Amasya Merzifon Airport, 87.8 nm (162.7 km) NW. Retrieved 2019/06/19 06:03 UTC (5 hours ago):

TAF LTAP 190440Z 1906/2006 VRB02KT 9999 SCT040 BECMG 1906/1909 03014KT PROB30 TEMPO 1914/1918 -TSRA FEW030CB BKN035 BECMG 1917/1920 VRB02KT